createdAt,value
2022-10-11T00:01:34.018Z,3.97
2022-10-11T00:04:00.821Z,3.95
2022-10-11T00:06:29.590Z,3.92
2022-10-11T00:08:56.634Z,3.80
2022-10-11T00:11:23.374Z,4.20
2022-10-11T00:13:50.708Z,3.85
2022-10-11T00:16:17.437Z,4.72
2022-10-11T00:18:44.135Z,5.07
2022-10-11T00:21:14.538Z,4.47
2022-10-11T00:23:43.176Z,4.78
2022-10-11T00:26:10.883Z,4.88
2022-10-11T00:28:38.671Z,4.85
2022-10-11T00:31:07.595Z,4.60
2022-10-11T00:36:02.366Z,4.93
2022-10-11T00:38:31.662Z,3.95
2022-10-11T00:41:00.382Z,3.88
2022-10-11T00:43:32.745Z,4.85
2022-10-11T00:46:08.141Z,4.55
2022-10-11T00:48:41.274Z,3.97
2022-10-11T00:51:16.250Z,3.55
2022-10-11T00:53:44.471Z,2.65
2022-10-11T00:56:20.436Z,3.03
2022-10-11T00:58:48.306Z,2.35
2022-10-11T01:01:15.059Z,2.80
2022-10-11T01:03:42.219Z,3.33
2022-10-11T01:06:09.507Z,3.70
2022-10-11T01:08:37.627Z,4.50
2022-10-11T01:11:04.792Z,3.90
2022-10-11T01:13:46.272Z,3.50
2022-10-11T01:16:23.174Z,3.10
2022-10-11T01:19:00.341Z,3.30
2022-10-11T01:21:34.615Z,3.10
2022-10-11T01:24:19.498Z,3.83
2022-10-11T01:27:34.340Z,4.15
2022-10-11T01:30:20.878Z,3.88
2022-10-11T01:32:53.105Z,3.70
2022-10-11T01:35:26.019Z,4.18
2022-10-11T01:37:59.521Z,3.75
2022-10-11T01:40:33.581Z,3.40
2022-10-11T01:43:01.484Z,3.28
2022-10-11T01:45:31.018Z,3.38
2022-10-11T01:48:06.085Z,3.35
2022-10-11T01:50:41.371Z,3.65
2022-10-11T01:53:34.238Z,3.33
2022-10-11T01:56:13.993Z,3.58
2022-10-11T01:58:50.549Z,4.00
2022-10-11T02:01:26.883Z,4.68
2022-10-11T02:04:01.987Z,3.83
2022-10-11T02:06:35.383Z,3.67
2022-10-11T02:09:08.338Z,4.70
2022-10-11T02:11:37.556Z,4.30
2022-10-11T02:14:09.070Z,3.53
2022-10-11T02:16:42.343Z,3.90
2022-10-11T02:19:09.971Z,4.18
2022-10-11T02:21:40.938Z,3.65
2022-10-11T02:24:12.158Z,3.55
2022-10-11T02:26:43.427Z,3.63
2022-10-11T02:29:14.128Z,3.60
2022-10-11T02:31:45.013Z,3.40
2022-10-11T02:34:15.041Z,3.95
2022-10-11T02:36:48.602Z,4.00
2022-10-11T02:39:22.985Z,3.88
2022-10-11T02:41:52.994Z,4.20
2022-10-11T02:44:26.812Z,4.30
2022-10-11T02:46:55.909Z,5.05
2022-10-11T02:49:23.140Z,4.78
2022-10-11T02:51:49.866Z,4.22
2022-10-11T02:54:17.687Z,4.38
2022-10-11T02:56:44.391Z,4.78
2022-10-11T02:59:11.303Z,4.20
2022-10-11T03:01:38.679Z,4.30
2022-10-11T03:04:06.838Z,4.00
2022-10-11T03:06:33.648Z,3.97
2022-10-11T03:09:01.033Z,3.20
2022-10-11T03:11:27.746Z,3.20
2022-10-11T03:13:54.543Z,3.03
2022-10-11T03:16:21.897Z,4.43
2022-10-11T03:18:48.593Z,5.38
2022-10-11T03:21:16.757Z,4.63
2022-10-11T03:23:44.124Z,5.30
2022-10-11T03:26:10.892Z,5.25
2022-10-11T03:28:37.660Z,4.03
2022-10-11T03:31:05.374Z,5.40
2022-10-11T03:33:32.102Z,4.25
2022-10-11T03:35:58.871Z,6.00
2022-10-11T03:38:27.552Z,5.35
2022-10-11T03:40:54.294Z,5.47
2022-10-11T03:43:21.087Z,4.35
2022-10-11T03:45:48.398Z,4.63
2022-10-11T03:48:15.116Z,3.92
2022-10-11T03:50:41.954Z,4.03
2022-10-11T03:53:09.300Z,5.45
2022-10-11T03:55:39.414Z,5.00
2022-10-11T03:58:06.270Z,5.60
2022-10-11T04:00:34.625Z,5.43
2022-10-11T04:03:01.647Z,4.97
2022-10-11T04:05:28.347Z,4.80
2022-10-11T04:07:55.645Z,5.97
2022-10-11T04:10:22.510Z,5.22
2022-10-11T04:12:50.584Z,6.85
2022-10-11T04:15:18.089Z,6.60
2022-10-11T04:17:44.871Z,5.40
2022-10-11T04:20:11.712Z,6.75
2022-10-11T04:22:39.082Z,5.95
2022-10-11T04:25:07.378Z,6.78
2022-10-11T04:27:35.023Z,6.40
2022-10-11T04:30:03.536Z,6.57
2022-10-11T04:32:30.237Z,5.13
2022-10-11T04:34:57.572Z,4.78
2022-10-11T04:37:24.388Z,4.45
2022-10-11T04:39:51.120Z,4.43
2022-10-11T04:42:18.441Z,4.70
2022-10-11T04:44:45.203Z,4.75
2022-10-11T04:47:13.286Z,5.07
2022-10-11T04:49:40.666Z,5.55
2022-10-11T04:52:07.395Z,5.55
2022-10-11T04:54:34.125Z,5.53
2022-10-11T04:57:01.425Z,6.07
2022-10-11T04:59:28.133Z,5.78
2022-10-11T05:01:54.977Z,4.53
2022-10-11T05:04:23.766Z,5.18
2022-10-11T05:06:50.582Z,5.35
2022-10-11T05:09:17.293Z,4.45
2022-10-11T05:11:44.693Z,4.50
2022-10-11T05:14:11.474Z,4.75
2022-10-11T05:16:38.191Z,4.00
2022-10-11T05:19:05.582Z,3.85
2022-10-11T05:21:33.692Z,3.85
2022-10-11T05:24:00.410Z,3.60
2022-10-11T05:26:28.617Z,3.40
2022-10-11T05:28:55.908Z,4.00
2022-10-11T05:31:22.881Z,4.15
2022-10-11T05:33:50.233Z,4.50
2022-10-11T05:36:17.113Z,4.93
2022-10-11T05:38:45.165Z,5.28
2022-10-11T05:41:14.355Z,5.80
2022-10-11T05:43:41.869Z,5.70
2022-10-11T05:46:08.985Z,7.60
2022-10-11T05:48:36.537Z,6.20
2022-10-11T05:51:05.436Z,6.50
2022-10-11T05:53:32.969Z,5.80
2022-10-11T05:56:01.968Z,6.73
2022-10-11T05:58:29.154Z,7.03
2022-10-11T06:00:56.186Z,7.85
2022-10-11T06:03:23.954Z,6.75
2022-10-11T06:05:55.755Z,6.28
2022-10-11T06:08:24.019Z,7.38
2022-10-11T06:10:50.857Z,6.60
2022-10-11T06:13:18.901Z,6.10
2022-10-11T06:15:46.272Z,6.55
2022-10-11T06:18:13.007Z,6.20
2022-10-11T06:20:39.711Z,6.35
2022-10-11T06:23:07.030Z,6.72
2022-10-11T06:25:33.719Z,6.75
2022-10-11T06:28:00.451Z,5.38
2022-10-11T06:30:29.167Z,6.75
2022-10-11T06:32:55.870Z,7.07
2022-10-11T06:35:22.583Z,7.88
2022-10-11T06:37:49.910Z,7.75
2022-10-11T06:40:16.656Z,8.57
2022-10-11T06:42:47.450Z,9.32
2022-10-11T06:45:14.903Z,8.98
2022-10-11T06:47:42.983Z,10.00
2022-10-11T06:50:09.826Z,8.90
2022-10-11T06:52:37.147Z,8.95
2022-10-11T06:55:04.420Z,10.05
2022-10-11T06:57:31.127Z,9.77
2022-10-11T06:59:58.471Z,9.88
2022-10-11T07:02:25.283Z,9.02
2022-10-11T07:04:53.326Z,9.18
2022-10-11T07:07:20.638Z,8.68
2022-10-11T07:09:47.365Z,9.60
2022-10-11T07:12:14.086Z,8.63
2022-10-11T07:14:41.439Z,9.68
2022-10-11T07:17:08.283Z,8.68
2022-10-11T07:19:35.006Z,9.98
2022-10-11T07:22:03.683Z,7.43
2022-10-11T07:24:30.423Z,9.40
2022-10-11T07:26:57.166Z,8.95
2022-10-11T07:29:24.499Z,8.77
2022-10-11T07:31:51.261Z,8.63
2022-10-11T07:34:17.963Z,8.48
2022-10-11T07:36:45.323Z,7.47
2022-10-11T07:39:13.435Z,8.07
2022-10-11T07:41:45.379Z,8.23
2022-10-11T07:44:13.357Z,7.80
2022-10-11T07:46:40.069Z,8.40
2022-10-11T07:49:06.795Z,8.85
2022-10-11T07:51:34.125Z,9.60
2022-10-11T07:54:06.176Z,10.18
2022-10-11T07:56:37.093Z,8.48
2022-10-11T07:59:03.856Z,9.25
2022-10-11T08:01:31.265Z,9.60
2022-10-11T08:03:59.295Z,7.73
2022-10-11T08:06:28.467Z,7.43
2022-10-11T08:08:56.350Z,9.40
2022-10-11T08:11:25.088Z,8.35
2022-10-11T08:13:53.759Z,8.00
2022-10-11T08:16:20.843Z,7.82
2022-10-11T08:18:48.591Z,6.40
2022-10-11T08:21:17.338Z,6.97
2022-10-11T08:23:44.354Z,7.32
2022-10-11T08:26:11.716Z,6.10
2022-10-11T08:28:38.509Z,5.72
2022-10-11T08:31:06.984Z,6.45
2022-10-11T08:36:04.841Z,5.00
2022-10-11T08:38:32.236Z,5.40
2022-10-11T08:41:01.034Z,6.20
2022-10-11T08:43:41.958Z,6.03
2022-10-11T08:46:13.094Z,5.90
2022-10-11T08:48:42.523Z,5.65
2022-10-11T08:51:18.146Z,6.10
2022-10-11T08:53:51.855Z,5.25
2022-10-11T08:56:21.005Z,4.93
2022-10-11T08:58:54.883Z,4.63
2022-10-11T09:01:26.553Z,4.20
2022-10-11T09:03:53.764Z,4.22
2022-10-11T09:06:31.015Z,3.83
2022-10-11T09:09:13.347Z,4.95
2022-10-11T09:11:51.119Z,4.68
2022-10-11T09:14:32.879Z,3.17
2022-10-11T09:17:10.882Z,3.38
2022-10-11T09:20:00.825Z,3.70
2022-10-11T09:22:35.774Z,2.95
2022-10-11T09:25:15.920Z,3.28
2022-10-11T09:28:02.355Z,3.63
2022-10-11T09:30:31.605Z,2.10
2022-10-11T09:33:10.443Z,2.67
2022-10-11T09:35:40.820Z,3.35
2022-10-11T09:38:17.920Z,2.65
2022-10-11T09:40:54.542Z,2.50
2022-10-11T09:43:21.412Z,3.55
2022-10-11T09:45:49.748Z,2.00
2022-10-11T09:48:22.734Z,2.63
2022-10-11T09:50:51.436Z,1.90
2022-10-11T09:53:18.198Z,2.45
2022-10-11T09:55:51.139Z,1.70
2022-10-11T09:58:27.658Z,2.15
2022-10-11T10:01:02.763Z,2.50
2022-10-11T10:03:36.565Z,2.70
2022-10-11T10:06:09.471Z,2.08
2022-10-11T10:08:36.994Z,2.15
2022-10-11T10:11:05.853Z,2.30
2022-10-11T10:16:23.383Z,2.13
2022-10-11T10:18:54.322Z,2.13
2022-10-11T10:21:28.960Z,1.95
2022-10-11T10:23:57.610Z,2.10
2022-10-11T10:26:26.273Z,1.83
2022-10-11T10:28:59.235Z,1.63
2022-10-11T10:31:44.184Z,2.72
2022-10-11T10:34:24.665Z,1.80
2022-10-11T10:36:55.163Z,2.40
2022-10-11T10:39:28.834Z,2.10
2022-10-11T10:41:56.668Z,2.67
2022-10-11T10:44:23.450Z,1.80
2022-10-11T10:47:05.345Z,2.10
2022-10-11T10:49:55.462Z,2.10
2022-10-11T10:52:46.260Z,1.90
2022-10-11T10:55:22.842Z,1.73
2022-10-11T10:58:04.192Z,1.90
2022-10-11T11:00:39.525Z,1.70
2022-10-11T11:03:09.811Z,1.80
2022-10-11T11:05:47.262Z,2.00
2022-10-11T11:08:21.551Z,1.92
2022-10-11T11:10:53.476Z,1.92
2022-10-11T11:13:27.791Z,1.90
2022-10-11T11:16:04.101Z,2.58
2022-10-11T11:18:39.094Z,1.95
2022-10-11T11:21:24.623Z,1.83
2022-10-11T11:24:01.283Z,1.70
2022-10-11T11:26:40.769Z,1.80
2022-10-11T11:29:21.926Z,2.33
2022-10-11T11:32:06.473Z,1.88
2022-10-11T11:34:38.328Z,1.92
2022-10-11T11:37:14.989Z,1.52
2022-10-11T11:39:48.115Z,1.55
2022-10-11T11:42:20.241Z,1.80
2022-10-11T11:44:48.810Z,1.67
2022-10-11T11:47:21.857Z,1.50
2022-10-11T11:49:53.428Z,1.83
2022-10-11T11:52:27.077Z,1.70
2022-10-11T11:55:03.924Z,1.42
2022-10-11T11:57:47.978Z,1.77
2022-10-11T12:00:19.054Z,1.63
2022-10-11T12:02:52.462Z,1.67
2022-10-11T12:05:21.995Z,1.60
2022-10-11T12:07:55.450Z,1.52
2022-10-11T12:10:30.518Z,1.48
2022-10-11T12:13:15.598Z,1.70
2022-10-11T12:15:55.833Z,1.83
2022-10-11T12:18:23.245Z,1.20
2022-10-11T12:21:02.213Z,1.25
2022-10-11T12:23:44.478Z,1.52
2022-10-11T12:26:33.921Z,1.50
2022-10-11T12:29:28.487Z,1.40
2022-10-11T12:32:43.677Z,1.35
2022-10-11T12:35:47.492Z,1.70
2022-10-11T12:38:19.544Z,1.45
2022-10-11T12:40:50.740Z,1.10
2022-10-11T12:44:08.379Z,2.00
2022-10-11T12:46:41.418Z,1.27
2022-10-11T12:49:45.290Z,1.60
2022-10-11T12:52:30.375Z,1.73
2022-10-11T12:55:13.194Z,1.40
2022-10-11T12:57:55.930Z,1.52
2022-10-11T13:00:24.815Z,1.38
2022-10-11T13:02:52.386Z,2.22
2022-10-11T13:05:24.052Z,1.48
2022-10-11T13:07:52.191Z,1.35
2022-10-11T13:10:25.115Z,1.67
2022-10-11T13:12:54.570Z,1.50
2022-10-11T13:15:22.947Z,1.20
2022-10-11T13:17:49.771Z,1.70
2022-10-11T13:20:19.227Z,1.10
2022-10-11T13:22:48.899Z,1.00
2022-10-11T13:25:18.171Z,1.40
2022-10-11T13:27:45.661Z,1.75
2022-10-11T13:30:18.963Z,1.80
2022-10-11T13:32:46.032Z,1.40
2022-10-11T13:35:21.006Z,1.70
2022-10-11T13:37:50.799Z,1.30
2022-10-11T13:40:20.744Z,1.60
2022-10-11T13:42:49.024Z,1.52
2022-10-11T13:45:20.094Z,1.30
2022-10-11T13:47:48.626Z,1.30
2022-10-11T13:50:23.952Z,1.60
2022-10-11T13:52:54.997Z,1.33
2022-10-11T13:55:33.436Z,1.13
2022-10-11T13:58:03.627Z,2.15
2022-10-11T14:00:36.902Z,0.90
2022-10-11T14:03:07.491Z,1.50
2022-10-11T14:05:37.401Z,1.27
2022-10-11T14:08:07.639Z,1.60
2022-10-11T14:10:34.687Z,1.60
2022-10-11T14:13:20.961Z,1.75
2022-10-11T14:16:02.409Z,1.45
2022-10-11T14:18:43.510Z,1.25
2022-10-11T14:21:35.022Z,1.40
2022-10-11T14:24:04.515Z,2.17
2022-10-11T14:26:35.248Z,1.88
2022-10-11T14:29:05.214Z,1.63
2022-10-11T14:31:37.896Z,1.73
2022-10-11T14:34:08.086Z,1.50
2022-10-11T14:36:35.398Z,1.40
2022-10-11T14:39:02.143Z,1.30
2022-10-11T14:41:29.291Z,1.67
2022-10-11T14:43:56.650Z,1.58
2022-10-11T14:46:25.086Z,1.30
2022-10-11T14:48:56.355Z,1.20
2022-10-11T14:51:28.995Z,1.20
2022-10-11T14:53:55.719Z,1.33
2022-10-11T14:56:22.481Z,2.60
2022-10-11T14:58:49.872Z,6.30
2022-10-11T15:01:17.449Z,7.53
2022-10-11T15:03:44.339Z,9.10
2022-10-11T15:06:17.962Z,4.00
2022-10-11T15:08:44.713Z,3.17
2022-10-11T15:11:12.997Z,1.80
2022-10-11T15:13:39.980Z,1.88
2022-10-11T15:16:07.772Z,1.98
2022-10-11T15:18:35.486Z,1.30
2022-10-11T15:21:02.205Z,1.48
2022-10-11T15:23:30.627Z,1.55
2022-10-11T15:25:57.966Z,1.23
2022-10-11T15:28:27.113Z,2.20
2022-10-11T15:30:54.485Z,1.48
2022-10-11T15:33:22.449Z,1.40
2022-10-11T15:35:49.275Z,1.67
2022-10-11T15:38:18.580Z,1.40
2022-10-11T15:40:48.627Z,1.70
2022-10-11T15:43:18.821Z,1.20
2022-10-11T15:45:49.436Z,1.67
2022-10-11T15:48:17.634Z,1.63
2022-10-11T15:50:44.642Z,1.50
2022-10-11T15:53:13.365Z,1.85
2022-10-11T15:55:41.611Z,1.60
2022-10-11T15:58:13.309Z,1.70
2022-10-11T16:00:40.983Z,1.17
2022-10-11T16:03:07.725Z,1.10
2022-10-11T16:05:34.434Z,1.80
2022-10-11T16:08:01.794Z,1.40
2022-10-11T16:10:28.558Z,1.73
2022-10-11T16:12:55.269Z,2.00
2022-10-11T16:15:24.455Z,4.70
2022-10-11T16:17:51.353Z,10.55
2022-10-11T16:20:18.251Z,12.20
2022-10-11T16:22:45.551Z,6.47
2022-10-11T16:25:12.269Z,6.60
2022-10-11T16:27:38.966Z,5.30
2022-10-11T16:30:07.133Z,4.18
2022-10-11T16:32:35.183Z,4.93
2022-10-11T16:35:01.918Z,5.77
2022-10-11T16:37:30.465Z,4.53
2022-10-11T16:39:57.236Z,2.30
2022-10-11T16:42:23.998Z,4.50
2022-10-11T16:44:51.358Z,3.92
2022-10-11T16:47:18.110Z,3.40
2022-10-11T16:49:46.527Z,3.40
2022-10-11T16:54:43.505Z,4.22
2022-10-11T16:57:10.832Z,3.63
2022-10-11T16:59:38.926Z,3.53
2022-10-11T17:02:05.830Z,4.22
2022-10-11T17:04:33.003Z,4.15
2022-10-11T17:07:01.743Z,4.20
2022-10-11T17:09:28.452Z,4.17
2022-10-11T17:11:55.185Z,3.60
2022-10-11T17:14:22.509Z,3.05
2022-10-11T17:16:49.288Z,3.88
2022-10-11T17:19:16.238Z,3.53
2022-10-11T17:21:43.551Z,3.53
2022-10-11T17:24:11.649Z,2.95
2022-10-11T17:26:38.571Z,3.20
2022-10-11T17:29:05.945Z,3.22
2022-10-11T17:31:32.933Z,2.65
2022-10-11T17:34:00.089Z,2.60
2022-10-11T17:36:29.573Z,2.92
2022-10-11T17:38:57.369Z,3.10
2022-10-11T17:41:30.873Z,3.55
2022-10-11T17:43:59.579Z,2.50
2022-10-11T17:46:26.328Z,2.20
2022-10-11T17:48:53.121Z,2.70
2022-10-11T17:51:20.846Z,3.10
2022-10-11T17:53:48.216Z,2.80
2022-10-11T17:56:16.995Z,3.40
2022-10-11T17:58:46.318Z,3.83
2022-10-11T18:01:16.724Z,3.80
2022-10-11T18:03:49.723Z,4.40
2022-10-11T18:06:16.453Z,4.03
2022-10-11T18:08:43.786Z,3.38
2022-10-11T18:11:11.914Z,2.85
2022-10-11T18:13:38.651Z,2.83
2022-10-11T18:16:08.063Z,3.05
2022-10-11T18:18:35.819Z,2.50
2022-10-11T18:21:02.542Z,2.83
2022-10-11T18:23:29.884Z,3.90
2022-10-11T18:25:56.611Z,3.47
2022-10-11T18:28:23.500Z,3.80
2022-10-11T18:30:50.883Z,3.63
2022-10-11T18:33:18.931Z,3.65
2022-10-11T18:35:45.654Z,4.50
2022-10-11T18:38:12.982Z,5.35
2022-10-11T18:40:44.713Z,4.93
2022-10-11T18:43:13.617Z,5.68
2022-10-11T18:45:40.323Z,5.30
2022-10-11T18:48:07.285Z,5.38
2022-10-11T18:50:35.968Z,5.63
2022-10-11T18:55:29.807Z,5.47
2022-10-11T18:57:57.862Z,6.30
2022-10-11T19:00:40.266Z,9.75
2022-10-11T19:03:08.713Z,11.20
2022-10-11T19:05:38.284Z,11.80
2022-10-11T19:08:05.656Z,7.95
2022-10-11T19:10:34.155Z,6.40
2022-10-11T19:13:00.930Z,5.57
2022-10-11T19:15:29.014Z,4.53
2022-10-11T19:17:56.498Z,4.38
2022-10-11T19:20:23.193Z,4.38
2022-10-11T19:22:51.272Z,6.18
2022-10-11T19:25:18.583Z,6.35
2022-10-11T19:27:45.396Z,8.98
2022-10-11T19:30:12.491Z,8.57
2022-10-11T19:32:42.243Z,8.88
2022-10-11T19:35:09.849Z,8.45
2022-10-11T19:37:36.544Z,8.45
2022-10-11T19:40:06.757Z,7.90
2022-10-11T19:42:33.903Z,8.32
2022-10-11T19:45:00.898Z,8.00
2022-10-11T19:47:28.233Z,8.20
2022-10-11T19:49:54.975Z,8.40
2022-10-11T19:52:21.693Z,9.23
2022-10-11T19:54:49.026Z,9.75
2022-10-11T19:57:17.090Z,9.98
2022-10-11T19:59:43.826Z,9.98
2022-10-11T20:02:12.981Z,9.60
2022-10-11T20:04:52.113Z,9.65
2022-10-11T20:07:20.699Z,10.73
2022-10-11T20:09:47.432Z,10.63
2022-10-11T20:12:14.187Z,11.63
2022-10-11T20:14:42.973Z,10.65
2022-10-11T20:17:09.669Z,10.53
2022-10-11T20:19:36.363Z,10.13
2022-10-11T20:22:03.788Z,10.20
2022-10-11T20:24:30.602Z,10.02
2022-10-11T20:26:57.349Z,10.40
2022-10-11T20:29:24.926Z,10.18
2022-10-11T20:31:53.078Z,10.13
2022-10-11T20:34:19.815Z,10.33
2022-10-11T20:36:49.299Z,10.32
2022-10-11T20:41:43.025Z,8.82
2022-10-11T20:44:10.478Z,9.73
2022-10-11T20:46:38.964Z,9.45
2022-10-11T20:49:08.552Z,9.90
2022-10-11T20:51:37.981Z,11.90
2022-10-11T20:54:05.261Z,12.93
2022-10-11T20:56:32.436Z,11.27
2022-10-11T20:58:59.778Z,9.85
2022-10-11T21:01:28.623Z,11.20
2022-10-11T21:03:57.018Z,11.40
2022-10-11T21:06:25.909Z,12.05
2022-10-11T21:08:54.568Z,11.27
2022-10-11T21:11:21.286Z,11.35
2022-10-11T21:13:48.616Z,11.02
2022-10-11T21:16:16.355Z,11.90
2022-10-11T21:18:43.064Z,12.10
2022-10-11T21:21:12.262Z,10.65
2022-10-11T21:23:40.963Z,11.05
2022-10-11T21:26:09.267Z,10.43
2022-10-11T21:28:37.332Z,9.98
2022-10-11T21:31:05.167Z,10.07
2022-10-11T21:33:32.655Z,10.13
2022-10-11T21:36:03.601Z,11.30
2022-10-11T21:38:30.367Z,10.15
2022-10-11T21:40:58.488Z,10.02
2022-10-11T21:43:25.786Z,10.32
2022-10-11T21:45:52.485Z,9.23
2022-10-11T21:48:19.263Z,9.80
2022-10-11T21:50:52.470Z,10.07
2022-10-11T21:53:19.190Z,9.15
2022-10-11T21:55:46.535Z,9.38
2022-10-11T21:58:14.582Z,8.85
2022-10-11T22:00:41.262Z,8.90
2022-10-11T22:03:08.887Z,8.82
2022-10-11T22:05:35.586Z,9.73
2022-10-11T22:08:02.294Z,9.57
2022-10-11T22:10:29.638Z,9.32
2022-10-11T22:12:56.333Z,10.15
2022-10-11T22:15:24.359Z,9.20
2022-10-11T22:17:51.867Z,9.55
2022-10-11T22:20:18.607Z,10.10
2022-10-11T22:22:45.328Z,8.63
2022-10-11T22:25:12.646Z,9.00
2022-10-11T22:27:39.345Z,7.88
2022-10-11T22:30:07.289Z,8.18
2022-10-11T22:32:36.309Z,8.98
2022-10-11T22:35:03.355Z,9.63
2022-10-11T22:37:30.049Z,9.05
2022-10-11T22:39:57.354Z,10.75
2022-10-11T22:42:27.567Z,9.80
2022-10-11T22:44:54.563Z,8.95
2022-10-11T22:47:21.928Z,9.77
2022-10-11T22:49:50.010Z,8.82
2022-10-11T22:52:16.768Z,9.00
2022-10-11T22:54:44.153Z,9.27
2022-10-11T22:57:10.875Z,8.30
2022-10-11T22:59:37.657Z,8.98
2022-10-11T23:02:04.985Z,7.97
2022-10-11T23:04:31.683Z,8.00
2022-10-11T23:07:04.027Z,8.05
2022-10-11T23:09:32.356Z,7.30
2022-10-11T23:11:59.310Z,7.20
2022-10-11T23:14:26.042Z,6.97
2022-10-11T23:16:53.592Z,7.65
2022-10-11T23:19:20.782Z,8.52
2022-10-11T23:21:47.563Z,7.18
2022-10-11T23:24:16.284Z,7.13
2022-10-11T23:26:42.983Z,7.60
2022-10-11T23:29:09.692Z,7.15
2022-10-11T23:31:37.008Z,7.50
2022-10-11T23:34:03.736Z,6.45
2022-10-11T23:36:30.507Z,7.13
2022-10-11T23:38:58.686Z,10.18
2022-10-11T23:41:28.594Z,8.70
2022-10-11T23:43:55.901Z,8.35
2022-10-11T23:46:23.648Z,6.90
2022-10-11T23:48:50.562Z,7.78
2022-10-11T23:51:17.283Z,7.20
2022-10-11T23:53:44.622Z,5.30
2022-10-11T23:56:12.349Z,6.82
2022-10-11T23:58:40.472Z,5.78
